Saturday, December 20, 2014, 10:59 PM EST
Back to Local

KPTW, Pottstown Limerick Airport

Location: Royersford, PA, United States Lat: 40.233
Local Time: 10:59 PM EST ( 3:59 GMT) Lon: -75.55
Time Zone: US/Eastern Elev: 291 ft

Show me the last for .
Show Coded

Time T Td Feel RH Dir Speed Gust Alt SLP Vis Weather Sky Remarks
2014-12-20 22:26 32 21 - 63 - Calm - 30.30 - 10 OVC030 None
2014-12-20 21:54 31 22 27 68 330° 3 - 30.29 30.29 10 OVC029 None
2014-12-20 20:54 32 21 - 63 - Calm - 30.29 30.29 10 OVC030 None
2014-12-20 19:54 32 21 27 63 330° 5 - 30.30 30.29 10 OVC031 None
2014-12-20 18:54 32 21 - 63 - Calm - 30.29 30.29 10 OVC031 6-hr Min Temp (7pm): 32.0°F
6-hr Max Temp (7pm): 34.0°F
2014-12-20 17:54 32 21 - 63 - Calm - 30.28 30.28 10 OVC031 None
2014-12-20 16:54 33 21 - 60 - Calm - 30.28 30.28 10 OVC031 None
2014-12-20 15:54 33 21 - 60 - Calm - 30.26 30.26 10 OVC031 None
2014-12-20 14:54 33 21 30 60 350° 3 - 30.26 30.26 10 OVC030 None
2014-12-20 13:54 33 21 - 60 - Calm - 30.26 30.26 10 OVC031 None
2014-12-20 13:45 33 21 - 60 - Calm - 30.26 - 10 OVC031 None
2014-12-20 13:08 33 21 - 60 - Calm - 30.27 - 10 OVC029 None
2014-12-20 12:54 33 21 30 60 Variable 3 - 30.27 30.27 10 OVC030 6-hr Min Temp (1pm): 30.0°F
6-hr Max Temp (1pm): 34.0°F
2014-12-20 11:54 33 21 27 60 360° 7 - 30.27 30.27 10 OVC029 None
2014-12-20 10:54 32 21 26 63 340° 6 - 30.30 30.30 10 OVC029 None
2014-12-20 09:54 32 21 26 63 360° 6 - 30.31 30.31 10 OVC029 None
2014-12-20 08:54 31 21 27 66 360° 3 - 30.30 30.30 10 OVC028 None
2014-12-20 07:54 31 20 27 63 360° 3 - 30.28 30.28 10 OVC028 None
2014-12-20 06:54 30 20 23 65 10° 7 - 30.26 30.26 10 OVC029 6-hr Min Temp (7am): 30.0°F
6-hr Max Temp (7am): 33.1°F
2014-12-20 05:54 31 20 23 63 10° 8 - 30.26 30.26 10 OVC027 None
2014-12-20 04:54 31 21 26 66 10° 5 - 30.25 30.25 10 OVC027 None
2014-12-20 03:54 31 21 24 66 350° 7 - 30.23 30.24 10 OVC027 None
2014-12-20 02:54 32 21 26 63 360° 6 - 30.23 30.22 10 OVC029 None
2014-12-20 02:44 32 21 26 63 350° 6 - 30.22 - 10 OVC029 None
2014-12-20 01:54 32 21 24 63 360° 10 - 30.20 30.20 10 OVC030 None
2014-12-20 00:54 33 21 28 60 340° 6 - 30.19 30.19 10 OVC032 6-hr Min Temp (1am): 32.0°F
6-hr Max Temp (1am): 33.1°F
2014-12-19 23:54 33 21 28 60 330° 6 - 30.20 30.20 10 OVC033 24-hr Min Temp (12am): 32.0°F
24-hr Max Temp (12am): 41.0°F

Support USWX by starting your Amazon purchase here.